No requiere especial atencion con respecto al clima.   -   No hay Alarmas

Nearby METAR Reports

 

LEBL - Barcelona Airpor, Spain
Distance from station: SSE 30km
Actualización: 17/12/2018 01:00
Few Clouds
Few Clouds
 Viento del ONO
Viento: ONO 24 km/h
Temperatura: 13°C
Rocío: 2°C
Humedad: 47%
Barómetro: 1018 hPa
Clouds: Few Clouds
Visibility: 10 km
Cloud details: Few Clouds 762 m
2018/12/17 00:00 LEBL 170000Z 30013KT 9999 FEW025 13/02 Q1018 NOSIG
LELL - Sabadell, Spain
Distance from station: ONO 14km
Actualización: 17/12/2018 01:00
Despejado
Despejado
 Viento del O
Viento: O 13 km/h
Temperatura: 10°C
Wind Chill: 8°C
Rocío: 5°C
Humedad: 71%
Barómetro: 1018 hPa
Clouds: Despejado
Visibility: 10 km
2018/12/17 00:00 LELL 170000Z AUTO 27007KT 240V310 9999 NCD 10/05 Q1018
 
LEGE - Girona/Costa Bra, Spain
Distance from station: NE 65km
Actualización: 17/12/2018 01:00
Parcialmente nuboso
Parcialmente nuboso
 Viento del NNE
Viento: NNE 7 km/h
Temperatura: 7°C
Wind Chill: 6°C
Rocío: 7°C
Humedad: 100%
Barómetro: 1018 hPa
Clouds: Parcialmente nuboso
Visibility: 9 km
2018/12/17 00:00 LEGE 170000Z 02004KT 360V060 9000 NSC 07/07 Q1018
LERS - Reus (civ/Mil), Spain
Distance from station: OSO 96km
Actualización: 17/12/2018 01:00
Despejado
Despejado
 Viento del O
Viento: O 22 km/h, Racha: 48 km/h
Temperatura: 13°C
Rocío: 2°C
Humedad: 47%
Barómetro: 1020 hPa
Clouds: Despejado
Visibility: 10 km
2018/12/17 00:00 LERS 170000Z AUTO 27012G26KT 240V340 9999 NCD 13/02 Q1020
 
LESU - Pirineus/La Seu, Spain
Distance from station: NO 121km
Actualización: 16/12/2018 17:00
NOT Current
Lluvia débil, Nearby fog, Muy nuboso
Lluvia débil, Nearby fog, Muy nuboso
 Viento del NE
Viento: NE 7 km/h
Temperatura: 6°C
Wind Chill: 4°C
Rocío: 5°C
Humedad: 93%
Barómetro: 1014 hPa
Resumen: Lluvia débil, Nearby fog
Clouds: Muy nuboso
Visibility: 10 km
Cloud details: Parcialmente nuboso 305 m
Muy nuboso 914 m
2018/12/16 16:00 LESU 161600Z 04004KT 360V090 9999 -RA VCFG SCT010 BKN030 06/05 Q1014
LEDA - Lleida/Alguaire, Spain
Distance from station: ONO 146km
Actualización: 17/12/2018 01:00
Despejado
Despejado
 Viento del ONO
Viento: ONO 26 km/h
Temperatura: 7°C
Wind Chill: 3°C
Rocío: 4°C
Humedad: 81%
Barómetro: 1021 hPa
Resumen: Despejado
Visibility: greater than 10 km
2018/12/17 00:00 LEDA 170000Z AUTO 29014KT CAVOK 07/04 Q1021
 
LFMP - Perpignan/Rivesa, France
Distance from station: NNE 150km
Actualización: 17/12/2018 01:00
Parcialmente nuboso
Parcialmente nuboso
 Viento del ONO
Viento: ONO 37 km/h, Racha: 57 km/h
Temperatura: 11°C
Rocío: 4°C
Humedad: 62%
Barómetro: 1019 hPa
Clouds: Parcialmente nuboso
Visibility: 10 km
Cloud details: Parcialmente nuboso 1280 m
Parcialmente nuboso 1585 m
2018/12/17 00:00 LFMP 170000Z AUTO 30020G31KT 9999 SCT042 SCT052 11/04 Q1019
LEPA - Palma De Mallorca, Spain
Distance from station: S 216km
Actualización: 17/12/2018 01:00
Few Clouds
Few Clouds
 Viento del NO
Viento: NO 22 km/h
Temperatura: 16°C
Rocío: 9°C
Humedad: 63%
Barómetro: 1020 hPa
Clouds: Few Clouds
Visibility: 10 km
Cloud details: Few Clouds 762 m
2018/12/17 00:00 LEPA 170000Z 32012KT 9999 FEW025 16/09 Q1020 NOSIG